Time,TemperatureF,DewpointF,PressureIn,WindDirection,WindDirectionDegrees,WindSpeedMPH,WindSpeedGustMPH,Humidity,HourlyPrecipIn,Conditions,Clouds,dailyrainin,SoftwareType,DateUTC
2013-01-13 00:10:00,27.3,23.9,29.90,NE,39,3.0,3.0,87,0.00,,,0.00,Wunderground v.1.15,2013-01-13 06:10:00,
2013-01-13 00:30:00,27.2,24.1,29.92,NE,39,2.0,2.0,88,0.00,,,0.00,Wunderground v.1.15,2013-01-13 06:30:00,
2013-01-13 00:45:00,26.7,23.6,29.92,NE,39,3.0,3.0,88,0.00,,,0.00,Wunderground v.1.15,2013-01-13 06:45:00,
2013-01-13 00:50:00,26.7,23.6,29.93,NE,39,3.0,4.0,88,0.00,,,0.00,Wunderground v.1.15,2013-01-13 06:50:00,
2013-01-13 01:00:00,26.7,23.6,29.93,NE,39,2.0,2.0,88,0.00,,,0.00,Wunderground v.1.15,2013-01-13 07:00:00,
2013-01-13 01:05:00,26.7,23.6,29.94,NE,39,2.0,2.0,88,0.00,,,0.00,Wunderground v.1.15,2013-01-13 07:05:00,
2013-01-13 01:20:00,26.7,23.6,29.97,NE,39,2.0,2.0,88,0.00,,,0.00,Wunderground v.1.15,2013-01-13 07:20:00,
2013-01-13 01:30:00,26.7,23.6,29.97,NE,39,2.0,2.0,88,0.00,,,0.00,Wunderground v.1.15,2013-01-13 07:30:00,
2013-01-13 01:40:00,26.4,23.3,29.96,NE,39,3.0,3.0,88,0.00,,,0.00,Wunderground v.1.15,2013-01-13 07:40:00,
2013-01-13 01:50:00,26.4,23.3,29.99,NE,39,2.0,4.0,88,0.00,,,0.00,Wunderground v.1.15,2013-01-13 07:50:00,
2013-01-13 02:00:00,26.1,23.0,29.99,NE,39,4.0,4.0,88,0.00,,,0.00,Wunderground v.1.15,2013-01-13 08:00:00,
2013-01-13 02:10:00,25.8,22.7,29.97,NE,39,3.0,3.0,88,0.00,,,0.00,Wunderground v.1.15,2013-01-13 08:10:00,
2013-01-13 02:15:00,25.8,22.7,29.97,NE,39,3.0,3.0,88,0.00,,,0.00,Wunderground v.1.15,2013-01-13 08:15:00,
2013-01-13 02:25:00,25.7,22.6,29.99,NE,39,2.0,3.0,88,0.00,,,0.00,Wunderground v.1.15,2013-01-13 08:25:00,
2013-01-13 02:34:00,25.4,22.1,29.99,NE,39,2.0,4.0,87,0.00,,,0.00,Wunderground v.1.15,2013-01-13 08:34:00,
2013-01-13 02:45:00,25.1,21.8,29.99,NE,39,3.0,3.0,87,0.00,,,0.00,Wunderground v.1.15,2013-01-13 08:45:00,
2013-01-13 02:50:00,25.0,21.4,29.99,NE,39,3.0,4.0,86,0.00,,,0.00,Wunderground v.1.15,2013-01-13 08:50:00,
2013-01-13 03:00:00,24.7,20.8,29.99,NE,39,4.0,4.0,85,0.00,,,0.00,Wunderground v.1.15,2013-01-13 09:00:00,
2013-01-13 03:05:00,24.5,20.4,29.99,NE,39,3.0,4.0,84,0.00,,,0.00,Wunderground v.1.15,2013-01-13 09:05:00,
2013-01-13 03:15:00,24.5,20.4,29.99,NE,39,3.0,4.0,84,0.00,,,0.00,Wunderground v.1.15,2013-01-13 09:15:00,
2013-01-13 03:24:00,24.2,20.1,30.01,NE,39,2.0,5.0,84,0.00,,,0.00,Wunderground v.1.15,2013-01-13 09:24:00,
2013-01-13 03:30:00,24.2,20.1,30.01,NE,39,2.0,2.0,84,0.00,,,0.00,Wunderground v.1.15,2013-01-13 09:30:00,
2013-01-13 03:35:00,24.1,20.0,29.99,NE,39,2.0,2.0,84,0.00,,,0.00,Wunderground v.1.15,2013-01-13 09:35:00,
2013-01-13 03:40:00,24.1,20.0,29.99,NE,39,1.0,3.0,84,0.00,,,0.00,Wunderground v.1.15,2013-01-13 09:40:00,
2013-01-13 03:45:00,24.1,20.0,29.99,NE,39,2.0,4.0,84,0.00,,,0.00,Wunderground v.1.15,2013-01-13 09:45:00,
2013-01-13 03:54:00,23.9,19.5,30.01,NE,39,2.0,4.0,83,0.00,,,0.00,Wunderground v.1.15,2013-01-13 09:54:00,
2013-01-13 03:59:00,23.8,19.4,30.01,NE,39,3.0,3.0,83,0.00,,,0.00,Wunderground v.1.15,2013-01-13 09:59:00,
2013-01-13 04:05:00,23.8,19.7,29.99,NE,39,3.0,3.0,84,0.00,,,0.00,Wunderground v.1.15,2013-01-13 10:05:00,
2013-01-13 04:14:00,23.8,19.7,29.99,NE,39,2.0,4.0,84,0.00,,,0.00,Wunderground v.1.15,2013-01-13 10:14:00,
2013-01-13 04:19:00,23.6,19.5,30.01,NE,39,2.0,5.0,84,0.00,,,0.00,Wunderground v.1.15,2013-01-13 10:19:00,
2013-01-13 04:24:00,23.6,19.2,30.01,NE,39,3.0,5.0,83,0.00,,,0.00,Wunderground v.1.15,2013-01-13 10:24:00,
2013-01-13 04:29:00,23.5,19.1,30.01,NE,39,3.0,3.0,83,0.00,,,0.00,Wunderground v.1.15,2013-01-13 10:29:00,
2013-01-13 04:34:00,23.3,18.6,30.01,NE,39,3.0,3.0,82,0.00,,,0.00,Wunderground v.1.15,2013-01-13 10:34:00,
2013-01-13 04:39:00,23.3,18.9,30.01,NE,39,3.0,3.0,83,0.00,,,0.00,Wunderground v.1.15,2013-01-13 10:39:00,
2013-01-13 04:44:00,23.3,18.9,30.01,NE,39,2.0,3.0,83,0.00,,,0.00,Wunderground v.1.15,2013-01-13 10:44:00,
2013-01-13 04:49:00,23.5,19.1,30.02,NE,39,2.0,2.0,83,0.00,,,0.00,Wunderground v.1.15,2013-01-13 10:49:00,
2013-01-13 04:54:00,23.5,19.1,30.02,NE,39,1.0,2.0,83,0.00,,,0.00,Wunderground v.1.15,2013-01-13 10:54:00,
2013-01-13 04:59:00,23.5,19.1,30.02,NE,39,1.0,3.0,83,0.00,,,0.00,Wunderground v.1.15,2013-01-13 10:59:00,
2013-01-13 05:05:00,23.3,18.9,30.01,NE,39,2.0,3.0,83,0.00,,,0.00,Wunderground v.1.15,2013-01-13 11:05:00,
2013-01-13 05:15:00,23.2,18.5,30.01,NE,39,1.0,2.0,82,0.00,,,0.00,Wunderground v.1.15,2013-01-13 11:15:00,
2013-01-13 05:20:00,23.2,18.5,30.07,NE,39,1.0,1.0,82,0.00,,,0.00,Wunderground v.1.15,2013-01-13 11:20:00,
2013-01-13 05:25:00,23.0,18.3,30.07,NE,39,2.0,2.0,82,0.00,,,0.00,Wunderground v.1.15,2013-01-13 11:25:00,
2013-01-13 05:30:00,22.9,17.9,30.07,NE,39,2.0,4.0,81,0.00,,,0.00,Wunderground v.1.15,2013-01-13 11:30:00,
2013-01-13 05:35:00,22.9,17.9,30.05,NE,39,3.0,4.0,81,0.00,,,0.00,Wunderground v.1.15,2013-01-13 11:35:00,
2013-01-13 05:40:00,22.7,17.7,30.05,NE,39,2.0,5.0,81,0.00,,,0.00,Wunderground v.1.15,2013-01-13 11:40:00,
2013-01-13 05:45:00,22.9,17.9,30.05,NE,39,1.0,5.0,81,0.00,,,0.00,Wunderground v.1.15,2013-01-13 11:45:00,
2013-01-13 05:50:00,22.9,17.9,30.08,NE,39,2.0,2.0,81,0.00,,,0.00,Wunderground v.1.15,2013-01-13 11:50:00,
2013-01-13 05:55:00,22.7,17.7,30.08,NE,39,2.0,6.0,81,0.00,,,0.00,Wunderground v.1.15,2013-01-13 11:55:00,
2013-01-13 06:00:00,22.7,17.7,30.08,NE,39,2.0,2.0,81,0.00,,,0.00,Wunderground v.1.15,2013-01-13 12:00:00,
2013-01-13 06:05:00,22.7,17.7,30.08,NE,39,1.0,2.0,81,0.00,,,0.00,Wunderground v.1.15,2013-01-13 12:05:00,
2013-01-13 06:14:00,22.7,17.7,30.08,NE,39,2.0,2.0,81,0.00,,,0.00,Wunderground v.1.15,2013-01-13 12:14:00,
2013-01-13 06:19:00,22.7,17.7,30.09,NE,39,2.0,2.0,81,0.00,,,0.00,Wunderground v.1.15,2013-01-13 12:19:00,
2013-01-13 06:30:00,22.7,17.7,30.09,NE,39,2.0,2.0,81,0.00,,,0.00,Wunderground v.1.15,2013-01-13 12:30:00,
2013-01-13 06:40:00,22.7,18.0,30.07,NE,39,1.0,1.0,82,0.00,,,0.00,Wunderground v.1.15,2013-01-13 12:40:00,
2013-01-13 06:45:00,22.5,17.8,30.07,NE,39,2.0,2.0,82,0.00,,,0.00,Wunderground v.1.15,2013-01-13 12:45:00,
2013-01-13 06:50:00,22.4,17.7,30.08,NE,39,2.0,2.0,82,0.00,,,0.00,Wunderground v.1.15,2013-01-13 12:50:00,
2013-01-13 06:55:00,22.4,17.5,30.08,NE,39,1.0,2.0,81,0.00,,,0.00,Wunderground v.1.15,2013-01-13 12:55:00,
2013-01-13 07:00:00,22.2,17.3,30.08,NE,39,1.0,2.0,81,0.00,,,0.00,Wunderground v.1.15,2013-01-13 13:00:00,
2013-01-13 07:05:00,22.2,17.3,30.09,NE,39,2.0,6.0,81,0.00,,,0.00,Wunderground v.1.15,2013-01-13 13:05:00,
2013-01-13 07:15:00,22.1,17.2,30.09,NE,39,2.0,3.0,81,0.00,,,0.00,Wunderground v.1.15,2013-01-13 13:15:00,
2013-01-13 07:20:00,22.1,17.4,30.07,NE,39,1.0,1.0,82,0.00,,,0.00,Wunderground v.1.15,2013-01-13 13:20:00,
2013-01-13 07:25:00,21.9,17.2,30.07,NE,39,2.0,3.0,82,0.00,,,0.00,Wunderground v.1.15,2013-01-13 13:25:00,
2013-01-13 07:30:00,21.9,17.0,30.07,NE,39,2.0,3.0,81,0.00,,,0.00,Wunderground v.1.15,2013-01-13 13:30:00,
2013-01-13 07:35:00,21.8,16.9,30.08,NE,39,2.0,3.0,81,0.00,,,0.00,Wunderground v.1.15,2013-01-13 13:35:00,
2013-01-13 07:40:00,21.8,16.9,30.08,NE,39,2.0,2.0,81,0.00,,,0.00,Wunderground v.1.15,2013-01-13 13:40:00,
2013-01-13 07:45:00,21.8,16.9,30.08,NE,39,3.0,3.0,81,0.00,,,0.00,Wunderground v.1.15,2013-01-13 13:45:00,
2013-01-13 07:50:00,21.6,16.7,30.08,NE,39,2.0,2.0,81,0.00,,,0.00,Wunderground v.1.15,2013-01-13 13:50:00,
2013-01-13 07:59:00,21.6,16.7,30.08,NE,39,2.0,2.0,81,0.00,,,0.00,Wunderground v.1.15,2013-01-13 13:59:00,
2013-01-13 08:05:00,21.4,16.5,30.08,NE,39,2.0,2.0,81,0.00,,,0.00,Wunderground v.1.15,2013-01-13 14:05:00,
2013-01-13 08:14:00,21.3,16.1,30.08,NE,39,3.0,3.0,80,0.00,,,0.00,Wunderground v.1.15,2013-01-13 14:14:00,
2013-01-13 08:20:00,21.1,15.9,30.07,NE,39,3.0,6.0,80,0.00,,,0.00,Wunderground v.1.15,2013-01-13 14:20:00,
2013-01-13 08:25:00,21.1,15.9,30.07,NE,39,3.0,6.0,80,0.00,,,0.00,Wunderground v.1.15,2013-01-13 14:25:00,
2013-01-13 08:30:00,21.1,15.9,30.07,NE,39,2.0,2.0,80,0.00,,,0.00,Wunderground v.1.15,2013-01-13 14:30:00,
2013-01-13 08:35:00,21.1,15.6,30.11,NE,39,3.0,3.0,79,0.00,,,0.00,Wunderground v.1.15,2013-01-13 14:35:00,
2013-01-13 08:45:00,21.3,16.1,30.11,NE,39,2.0,2.0,80,0.00,,,0.00,Wunderground v.1.15,2013-01-13 14:45:00,
2013-01-13 08:50:00,21.4,16.2,30.14,NE,39,2.0,2.0,80,0.00,,,0.00,Wunderground v.1.15,2013-01-13 14:50:00,
2013-01-13 08:55:00,21.4,16.5,30.14,NE,39,3.0,3.0,81,0.00,,,0.00,Wunderground v.1.15,2013-01-13 14:55:00,
2013-01-13 09:00:00,21.6,16.7,30.14,NE,39,3.0,3.0,81,0.00,,,0.00,Wunderground v.1.15,2013-01-13 15:00:00,
2013-01-13 09:05:00,21.6,16.7,30.15,NE,39,2.0,3.0,81,0.00,,,0.00,Wunderground v.1.15,2013-01-13 15:05:00,
2013-01-13 09:15:00,21.3,16.7,30.15,NE,39,2.0,5.0,82,0.00,,,0.00,Wunderground v.1.15,2013-01-13 15:15:00,
2013-01-13 09:24:00,21.3,16.7,30.14,NE,39,2.0,2.0,82,0.00,,,0.00,Wunderground v.1.15,2013-01-13 15:24:00,
2013-01-13 09:29:00,21.3,16.7,30.14,NE,39,2.0,2.0,82,0.00,,,0.00,Wunderground v.1.15,2013-01-13 15:29:00,
2013-01-13 09:34:00,21.4,16.8,30.16,NE,39,1.0,2.0,82,0.00,,,0.00,Wunderground v.1.15,2013-01-13 15:34:00,
2013-01-13 09:44:00,21.4,16.5,30.16,NE,39,2.0,2.0,81,0.00,,,0.00,Wunderground v.1.15,2013-01-13 15:44:00,
2013-01-13 09:54:00,21.8,16.9,30.19,NE,39,2.0,2.0,81,0.00,,,0.00,Wunderground v.1.15,2013-01-13 15:54:00,
2013-01-13 10:00:00,21.8,16.9,30.19,NE,39,2.0,3.0,81,0.00,,,0.00,Wunderground v.1.15,2013-01-13 16:00:00,
2013-01-13 10:05:00,21.9,17.0,30.16,NE,39,2.0,3.0,81,0.00,,,0.00,Wunderground v.1.15,2013-01-13 16:05:00,
2013-01-13 10:15:00,22.5,17.3,30.16,NNW,339,3.0,4.0,80,0.00,,,0.00,Wunderground v.1.15,2013-01-13 16:15:00,
2013-01-13 10:20:00,22.7,17.5,30.16,NNE,27,3.0,3.0,80,0.00,,,0.00,Wunderground v.1.15,2013-01-13 16:20:00,
2013-01-13 10:29:00,22.4,16.9,30.16,NNW,341,2.0,2.0,79,0.00,,,0.00,Wunderground v.1.15,2013-01-13 16:29:00,
2013-01-13 10:34:00,22.2,16.4,30.15,NNE,26,3.0,3.0,78,0.00,,,0.00,Wunderground v.1.15,2013-01-13 16:34:00,
2013-01-13 10:39:00,22.2,16.4,30.15,NNE,32,2.0,2.0,78,0.00,,,0.00,Wunderground v.1.15,2013-01-13 16:39:00,
2013-01-13 10:44:00,22.4,16.9,30.15,NW,325,2.0,5.0,79,0.00,,,0.00,Wunderground v.1.15,2013-01-13 16:44:00,
2013-01-13 10:49:00,22.9,17.4,30.15,WSW,257,3.0,3.0,79,0.00,,,0.00,Wunderground v.1.15,2013-01-13 16:49:00,
2013-01-13 10:54:00,23.2,17.9,30.15,NNE,30,2.0,3.0,80,0.00,,,0.00,Wunderground v.1.15,2013-01-13 16:54:00,
2013-01-13 11:05:00,24.1,18.8,30.17,NNE,31,2.0,2.0,80,0.00,,,0.00,Wunderground v.1.15,2013-01-13 17:05:00,
2013-01-13 11:15:00,23.5,17.9,30.17,NW,317,2.0,5.0,79,0.00,,,0.00,Wunderground v.1.15,2013-01-13 17:15:00,
2013-01-13 11:20:00,23.0,17.5,30.16,NNE,31,3.0,4.0,79,0.00,,,0.00,Wunderground v.1.15,2013-01-13 17:20:00,
2013-01-13 11:25:00,22.7,17.2,30.16,North,5,4.0,4.0,79,0.00,,,0.00,Wunderground v.1.15,2013-01-13 17:25:00,
2013-01-13 11:30:00,22.9,17.4,30.16,NW,309,4.0,4.0,79,0.00,,,0.00,Wunderground v.1.15,2013-01-13 17:30:00,
2013-01-13 11:35:00,23.3,17.7,30.16,NNW,332,3.0,4.0,79,0.00,,,0.00,Wunderground v.1.15,2013-01-13 17:35:00,
2013-01-13 11:40:00,23.3,17.7,30.16,West,278,3.0,3.0,79,0.00,,,0.00,Wunderground v.1.15,2013-01-13 17:40:00,
2013-01-13 11:45:00,23.5,18.2,30.16,NW,304,3.0,3.0,80,0.00,,,0.00,Wunderground v.1.15,2013-01-13 17:45:00,
2013-01-13 11:50:00,23.6,18.3,30.15,NNE,24,2.0,3.0,80,0.00,,,0.00,Wunderground v.1.15,2013-01-13 17:50:00,
2013-01-13 11:59:00,22.7,16.9,30.15,South,175,3.0,3.0,78,0.00,,,0.00,Wunderground v.1.15,2013-01-13 17:59:00,
2013-01-13 12:05:00,22.5,16.4,30.15,NNW,345,3.0,5.0,77,0.00,,,0.00,Wunderground v.1.15,2013-01-13 18:05:00,
2013-01-13 12:14:00,22.4,16.6,30.15,NW,322,3.0,3.0,78,0.00,,,0.00,Wunderground v.1.15,2013-01-13 18:14:00,
2013-01-13 12:19:00,23.2,17.4,30.16,NW,325,3.0,4.0,78,0.00,,,0.00,Wunderground v.1.15,2013-01-13 18:19:00,
2013-01-13 12:24:00,23.3,17.2,30.16,WSW,254,3.0,4.0,77,0.00,,,0.00,Wunderground v.1.15,2013-01-13 18:24:00,
2013-01-13 12:30:00,23.5,17.6,30.16,NNE,25,3.0,3.0,78,0.00,,,0.00,Wunderground v.1.15,2013-01-13 18:30:00,
2013-01-13 12:35:00,23.0,17.2,30.16,NNW,331,2.0,3.0,78,0.00,,,0.00,Wunderground v.1.15,2013-01-13 18:35:00,
2013-01-13 12:45:00,22.1,16.3,30.16,NW,317,3.0,4.0,78,0.00,,,0.00,Wunderground v.1.15,2013-01-13 18:45:00,
2013-01-13 12:50:00,21.9,16.1,30.17,West,259,3.0,3.0,78,0.00,,,0.00,Wunderground v.1.15,2013-01-13 18:50:00,
2013-01-13 12:59:00,21.8,16.6,30.17,NW,313,2.0,2.0,80,0.00,,,0.00,Wunderground v.1.15,2013-01-13 18:59:00,
2013-01-13 13:05:00,21.6,16.1,30.16,West,260,3.0,3.0,79,0.00,,,0.00,Wunderground v.1.15,2013-01-13 19:05:00,
2013-01-13 13:14:00,21.9,16.4,30.16,WSW,258,2.0,2.0,79,0.00,,,0.00,Wunderground v.1.15,2013-01-13 19:14:00,
2013-01-13 13:20:00,21.8,16.0,30.17,NE,44,3.0,3.0,78,0.00,,,0.00,Wunderground v.1.15,2013-01-13 19:20:00,
2013-01-13 13:29:00,21.8,16.3,30.17,NE,44,3.0,3.0,79,0.00,,,0.00,Wunderground v.1.15,2013-01-13 19:29:00,
2013-01-13 13:34:00,21.9,16.4,30.18,NE,44,2.0,3.0,79,0.00,,,0.00,Wunderground v.1.15,2013-01-13 19:34:00,
2013-01-13 13:40:00,21.9,16.7,30.18,NE,44,2.0,2.0,80,0.00,,,0.00,Wunderground v.1.15,2013-01-13 19:40:00,
2013-01-13 13:45:00,21.8,16.3,30.18,NE,44,3.0,5.0,79,0.00,,,0.00,Wunderground v.1.15,2013-01-13 19:45:00,
2013-01-13 13:50:00,21.8,16.3,30.19,NE,44,3.0,4.0,79,0.00,,,0.00,Wunderground v.1.15,2013-01-13 19:50:00,
2013-01-13 13:59:00,21.9,16.4,30.19,NE,44,2.0,2.0,79,0.00,,,0.00,Wunderground v.1.15,2013-01-13 19:59:00,
2013-01-13 14:05:00,22.1,16.3,30.18,NE,44,2.0,3.0,78,0.00,,,0.00,Wunderground v.1.15,2013-01-13 20:05:00,
2013-01-13 14:15:00,22.4,16.6,30.18,NE,44,2.0,2.0,78,0.00,,,0.00,Wunderground v.1.15,2013-01-13 20:15:00,
2013-01-13 14:25:00,22.7,16.9,30.19,West,267,2.0,6.0,78,0.00,,,0.00,Wunderground v.1.15,2013-01-13 20:25:00,
2013-01-13 14:30:00,22.7,16.9,30.19,NNE,20,3.0,3.0,78,0.00,,,0.00,Wunderground v.1.15,2013-01-13 20:30:00,
2013-01-13 14:40:00,22.5,16.4,30.20,North,355,3.0,3.0,77,0.00,,,0.00,Wunderground v.1.15,2013-01-13 20:40:00,
2013-01-13 14:45:00,22.7,16.9,30.20,West,275,2.0,3.0,78,0.00,,,0.00,Wunderground v.1.15,2013-01-13 20:45:00,
2013-01-13 14:54:00,23.3,17.5,30.21,North,360,2.0,4.0,78,0.00,,,0.00,Wunderground v.1.15,2013-01-13 20:54:00,
2013-01-13 15:00:00,23.5,17.0,30.21,WNW,288,2.0,2.0,76,0.00,,,0.00,Wunderground v.1.15,2013-01-13 21:00:00,
2013-01-13 15:05:00,23.3,17.2,30.22,WNW,292,2.0,3.0,77,0.00,,,0.00,Wunderground v.1.15,2013-01-13 21:05:00,
2013-01-13 15:15:00,24.4,17.9,30.22,NW,318,2.0,2.0,76,0.00,,,0.00,Wunderground v.1.15,2013-01-13 21:15:00,
2013-01-13 15:24:00,24.8,18.3,30.22,NW,316,2.0,2.0,76,0.00,,,0.00,Wunderground v.1.15,2013-01-13 21:24:00,
2013-01-13 15:30:00,24.8,18.6,30.22,NW,316,1.0,1.0,77,0.00,,,0.00,Wunderground v.1.15,2013-01-13 21:30:00,
2013-01-13 15:39:00,24.1,17.3,30.23,NW,316,2.0,2.0,75,0.00,,,0.00,Wunderground v.1.15,2013-01-13 21:39:00,
2013-01-13 15:45:00,23.8,17.0,30.23,NW,316,2.0,2.0,75,0.00,,,0.00,Wunderground v.1.15,2013-01-13 21:45:00,
2013-01-13 15:54:00,23.0,16.3,30.23,NW,316,2.0,6.0,75,0.00,,,0.00,Wunderground v.1.15,2013-01-13 21:54:00,
2013-01-13 16:00:00,23.0,16.3,30.23,NW,316,1.0,2.0,75,0.00,,,0.00,Wunderground v.1.15,2013-01-13 22:00:00,
2013-01-13 16:10:00,23.2,16.4,30.24,NW,316,2.0,2.0,75,0.00,,,0.00,Wunderground v.1.15,2013-01-13 22:10:00,
2013-01-13 16:19:00,22.9,15.8,30.24,NW,316,1.0,1.0,74,0.00,,,0.00,Wunderground v.1.15,2013-01-13 22:19:00,
2013-01-13 16:25:00,22.7,16.0,30.24,NW,316,1.0,1.0,75,0.00,,,0.00,Wunderground v.1.15,2013-01-13 22:25:00,
2013-01-13 16:30:00,22.7,16.0,30.24,NW,316,2.0,2.0,75,0.00,,,0.00,Wunderground v.1.15,2013-01-13 22:30:00,
2013-01-13 16:39:00,22.5,15.8,30.24,NW,316,1.0,5.0,75,0.00,,,0.00,Wunderground v.1.15,2013-01-13 22:39:00,
2013-01-13 16:45:00,22.2,15.5,30.24,NW,316,1.0,5.0,75,0.00,,,0.00,Wunderground v.1.15,2013-01-13 22:45:00,
2013-01-13 16:54:00,22.2,15.8,30.24,NW,316,1.0,1.0,76,0.00,,,0.00,Wunderground v.1.15,2013-01-13 22:54:00,
2013-01-13 17:00:00,22.2,15.8,30.24,NW,316,1.0,1.0,76,0.00,,,0.00,Wunderground v.1.15,2013-01-13 23:00:00,
2013-01-13 17:05:00,22.1,16.0,30.24,NW,316,0.0,1.0,77,0.00,,,0.00,Wunderground v.1.15,2013-01-13 23:05:00,
2013-01-13 17:10:00,22.1,16.0,30.24,NW,316,0.0,2.0,77,0.00,,,0.00,Wunderground v.1.15,2013-01-13 23:10:00,
2013-01-13 17:19:00,21.6,14.9,30.24,NW,316,1.0,1.0,75,0.00,,,0.00,Wunderground v.1.15,2013-01-13 23:19:00,
2013-01-13 17:25:00,21.4,14.4,30.24,NW,316,1.0,1.0,74,0.00,,,0.00,Wunderground v.1.15,2013-01-13 23:25:00,
2013-01-13 17:30:00,21.1,14.1,30.24,NW,316,1.0,1.0,74,0.00,,,0.00,Wunderground v.1.15,2013-01-13 23:30:00,
2013-01-13 17:35:00,21.0,14.3,30.25,NW,316,0.0,1.0,75,0.00,,,0.00,Wunderground v.1.15,2013-01-13 23:35:00,
2013-01-13 17:40:00,20.8,14.1,30.25,NW,316,0.0,0.0,75,0.00,,,0.00,Wunderground v.1.15,2013-01-13 23:40:00,
2013-01-13 17:54:00,20.5,14.1,30.25,NW,316,0.0,0.0,76,0.00,,,0.00,Wunderground v.1.15,2013-01-13 23:54:00,
2013-01-13 17:59:00,20.3,13.9,30.25,NW,316,0.0,0.0,76,0.00,,,0.00,Wunderground v.1.15,2013-01-13 23:59:00,
2013-01-13 18:10:00,20.2,13.8,30.26,NW,316,0.0,0.0,76,0.00,,,0.00,Wunderground v.1.15,2013-01-14 00:10:00,
2013-01-13 18:15:00,20.2,13.8,30.26,NW,316,0.0,0.0,76,0.00,,,0.00,Wunderground v.1.15,2013-01-14 00:15:00,
2013-01-13 18:25:00,19.9,13.6,30.26,NW,316,0.0,0.0,76,0.00,,,0.00,Wunderground v.1.15,2013-01-14 00:25:00,
2013-01-13 18:34:00,19.7,13.4,30.27,NW,316,0.0,0.0,76,0.00,,,0.00,Wunderground v.1.15,2013-01-14 00:34:00,
2013-01-13 18:40:00,19.7,13.4,30.27,NW,316,1.0,1.0,76,0.00,,,0.00,Wunderground v.1.15,2013-01-14 00:40:00,
2013-01-13 18:45:00,19.7,13.4,30.27,NW,316,1.0,1.0,76,0.00,,,0.00,Wunderground v.1.15,2013-01-14 00:45:00,
2013-01-13 18:59:00,19.2,13.2,30.27,NW,316,0.0,0.0,77,0.00,,,0.00,Wunderground v.1.15,2013-01-14 00:59:00,
2013-01-13 19:05:00,19.2,13.2,30.27,NW,316,0.0,1.0,77,0.00,,,0.00,Wunderground v.1.15,2013-01-14 01:05:00,
2013-01-13 19:14:00,19.1,13.1,30.27,NW,316,0.0,0.0,77,0.00,,,0.00,Wunderground v.1.15,2013-01-14 01:14:00,
2013-01-13 19:20:00,19.1,13.1,30.27,NW,316,0.0,0.0,77,0.00,,,0.00,Wunderground v.1.15,2013-01-14 01:20:00,
2013-01-13 19:29:00,18.9,12.9,30.27,NW,316,0.0,1.0,77,0.00,,,0.00,Wunderground v.1.15,2013-01-14 01:29:00,
2013-01-13 19:35:00,18.9,13.2,30.27,NW,316,0.0,0.0,78,0.00,,,0.00,Wunderground v.1.15,2013-01-14 01:35:00,
2013-01-13 19:44:00,18.8,13.1,30.27,NW,316,0.0,2.0,78,0.00,,,0.00,Wunderground v.1.15,2013-01-14 01:44:00,
2013-01-13 19:50:00,18.8,13.1,30.28,NW,316,0.0,2.0,78,0.00,,,0.00,Wunderground v.1.15,2013-01-14 01:50:00,
2013-01-13 20:00:00,18.6,12.6,30.28,NW,316,0.0,0.0,77,0.00,,,0.00,Wunderground v.1.15,2013-01-14 02:00:00,
2013-01-13 20:10:00,18.3,12.3,30.28,NW,316,0.0,0.0,77,0.00,,,0.00,Wunderground v.1.15,2013-01-14 02:10:00,
2013-01-13 20:20:00,18.1,12.4,30.28,NW,316,0.0,0.0,78,0.00,,,0.00,Wunderground v.1.15,2013-01-14 02:20:00,
2013-01-13 20:30:00,18.0,12.0,30.28,NW,316,0.0,0.0,77,0.00,,,0.00,Wunderground v.1.15,2013-01-14 02:30:00,
2013-01-13 20:40:00,17.8,12.1,30.29,NW,316,0.0,0.0,78,0.00,,,0.00,Wunderground v.1.15,2013-01-14 02:40:00,
2013-01-13 21:00:00,17.3,11.6,30.29,NW,316,0.0,0.0,78,0.00,,,0.00,Wunderground v.1.15,2013-01-14 03:00:00,
2013-01-13 21:10:00,17.2,11.5,30.28,NW,316,0.0,0.0,78,0.00,,,0.00,Wunderground v.1.15,2013-01-14 03:10:00,
2013-01-13 21:25:00,16.9,11.5,30.29,NW,316,0.0,0.0,79,0.00,,,0.00,Wunderground v.1.15,2013-01-14 03:25:00,
2013-01-13 21:30:00,16.9,11.5,30.29,NW,316,0.0,0.0,79,0.00,,,0.00,Wunderground v.1.15,2013-01-14 03:30:00,
2013-01-13 21:35:00,16.7,11.3,30.30,NW,316,0.0,0.0,79,0.00,,,0.00,Wunderground v.1.15,2013-01-14 03:35:00,
2013-01-13 21:50:00,16.5,11.4,30.31,NW,316,0.0,0.0,80,0.00,,,0.00,Wunderground v.1.15,2013-01-14 03:50:00,
2013-01-13 22:00:00,16.2,11.1,30.31,NW,316,0.0,0.0,80,0.00,,,0.00,Wunderground v.1.15,2013-01-14 04:00:00,
2013-01-13 22:10:00,15.7,10.9,30.32,NW,316,0.0,0.0,81,0.00,,,0.00,Wunderground v.1.15,2013-01-14 04:10:00,
2013-01-13 22:20:00,15.6,10.8,30.33,NW,316,0.0,0.0,81,0.00,,,0.00,Wunderground v.1.15,2013-01-14 04:20:00,
2013-01-13 23:15:00,14.1,9.9,30.34,NW,316,0.0,0.0,83,0.00,,,0.00,Wunderground v.1.15,2013-01-14 05:15:00,
2013-01-13 23:30:00,14.0,9.8,30.35,NW,316,0.0,0.0,83,0.00,,,0.00,Wunderground v.1.15,2013-01-14 05:30:00,
2013-01-13 23:55:00,13.3,9.1,30.35,NW,316,0.0,0.0,83,0.00,,,0.00,Wunderground v.1.15,2013-01-14 05:55:00,